Bachir Chihani — 7TJA — position and weather

sailwx.info

Track history (hours):
 
Tides and Currents Weather Stations Pressure Air Temp Water Temp Dewpoint Dewpoint Depression Visibility Wind Speed Wind Dir Waves Ship Positions

Bachir Chihani

Last reported at 2017-Feb-13 17:20 UTC. Time now 2017-Feb-25 14:04 UTC.
Position N 36°38' E 013°36'.
Warning: this ship's position is 11 days out of date.

Length 280 m; draft 9.2 m.

Type: Ship (hazmat cat D). MMSI: 605106010.

Date/timePositionNaut miles runAvg speedWind from/ knotsBaromVisibWave heightAir tempDewpointWater temp
2017-Feb-13 17:20N 36°38' E 013°36'1311.9
2017-Feb-13 16:14N 36°36' E 013°52'812.2
2017-Feb-13 15:33N 36°34' E 014°02'1212.4
2017-Feb-13 14:33N 36°31' E 014°17'1212.0
2017-Feb-13 13:33N 36°29' E 014°32'1212.1
2017-Feb-13 12:33N 36°26' E 014°46'  
2017-Feb-06 16:33N 36°24' E 014°51'1313.3
2017-Feb-06 15:34N 36°27' E 014°35'1413.6
2017-Feb-06 14:33N 36°30' E 014°18'1413.7
2017-Feb-06 13:33N 36°32' E 014°01'1313.1
2017-Feb-06 12:33N 36°34' E 013°45'  
Track history (hours):
 
Tides and Currents Weather Stations Pressure Air Temp Water Temp Dewpoint Dewpoint Depression Visibility Wind Speed Wind Dir Waves Ship Positions

Bachir Chihani

Last reported at 2017-Feb-13 17:20 UTC. Time now 2017-Feb-25 14:04 UTC.
Position N 36°38' E 013°36'.
Warning: this ship's position is 11 days out of date.

Length 280 m; draft 9.2 m.

Type: Ship (hazmat cat D). MMSI: 605106010.

Date/timePositionNaut miles runAvg speedWind from/ knotsBaromVisibWave heightAir tempDewpointWater temp
2017-Feb-13 17:20N 36°38' E 013°36'1311.9
2017-Feb-13 16:14N 36°36' E 013°52'812.2
2017-Feb-13 15:33N 36°34' E 014°02'1212.4
2017-Feb-13 14:33N 36°31' E 014°17'1212.0
2017-Feb-13 13:33N 36°29' E 014°32'1212.1
2017-Feb-13 12:33N 36°26' E 014°46'  
2017-Feb-06 16:33N 36°24' E 014°51'1313.3
2017-Feb-06 15:34N 36°27' E 014°35'1413.6
2017-Feb-06 14:33N 36°30' E 014°18'1413.7
2017-Feb-06 13:33N 36°32' E 014°01'1313.1
2017-Feb-06 12:33N 36°34' E 013°45'  

Dump ship's entire track history